createdAt,value
2019-04-14T00:00:32.142Z,89.36
2019-04-14T00:01:32.607Z,89.98
2019-04-14T00:02:32.135Z,90.29
2019-04-14T00:03:32.493Z,90.29
2019-04-14T00:04:33.138Z,90.08
2019-04-14T00:05:34.036Z,90.50
2019-04-14T00:06:32.995Z,89.87
2019-04-14T00:07:32.067Z,89.98
2019-04-14T00:08:32.710Z,89.87
2019-04-14T00:09:32.057Z,90.39
2019-04-14T00:10:33.253Z,89.87
2019-04-14T00:11:32.267Z,89.70
2019-04-14T00:12:32.012Z,88.77
2019-04-14T00:13:32.807Z,89.18
2019-04-14T00:14:31.992Z,89.70
2019-04-14T00:15:38.621Z,89.81
2019-04-14T00:16:33.477Z,90.33
2019-04-14T00:17:32.688Z,89.81
2019-04-14T00:18:31.946Z,90.08
2019-04-14T00:19:32.699Z,90.44
2019-04-14T00:20:31.924Z,89.81
2019-04-14T00:21:32.490Z,90.33
2019-04-14T00:22:32.197Z,89.81
2019-04-14T00:23:32.640Z,89.70
2019-04-14T00:24:31.882Z,89.92
2019-04-14T00:25:32.597Z,89.39
2019-04-14T00:26:31.860Z,90.02
2019-04-14T00:27:32.400Z,89.81
2019-04-14T00:28:31.846Z,90.12
2019-04-14T00:29:32.752Z,89.87
2019-04-14T00:30:31.822Z,89.70
2019-04-14T00:31:32.853Z,89.87
2019-04-14T00:32:31.792Z,89.46
2019-04-14T00:33:32.364Z,89.15
2019-04-14T00:34:33.044Z,89.18
2019-04-14T00:35:32.067Z,89.08
2019-04-14T00:36:32.631Z,89.39
2019-04-14T00:37:31.765Z,88.73
2019-04-14T00:38:32.333Z,89.70
2019-04-14T00:39:31.717Z,89.70
2019-04-14T00:40:32.990Z,89.92
2019-04-14T00:41:41.657Z,89.70
2019-04-14T00:42:32.691Z,90.39
2019-04-14T00:43:31.671Z,89.87
2019-04-14T00:44:31.906Z,90.29
2019-04-14T00:45:40.259Z,90.39
2019-04-14T00:46:34.163Z,90.33
2019-04-14T00:47:31.641Z,89.98
2019-04-14T00:48:32.024Z,89.77
2019-04-14T00:49:31.618Z,89.92
2019-04-14T00:50:31.929Z,89.50
2019-04-14T00:51:31.598Z,90.54
2019-04-14T00:52:31.880Z,90.29
2019-04-14T00:53:31.714Z,90.23
2019-04-14T00:54:32.514Z,89.92
2019-04-14T00:55:31.544Z,90.12
2019-04-14T00:56:32.279Z,89.92
2019-04-14T00:57:31.518Z,90.02
2019-04-14T00:58:32.213Z,90.12
2019-04-14T00:59:31.505Z,89.81
2019-04-14T01:00:32.020Z,90.12
2019-04-14T01:01:31.480Z,89.81
2019-04-14T01:02:31.851Z,90.33
2019-04-14T01:03:31.463Z,90.33
2019-04-14T01:04:31.691Z,90.33
2019-04-14T01:05:33.378Z,90.16
2019-04-14T01:06:31.501Z,90.44
2019-04-14T01:07:32.631Z,90.23
2019-04-14T01:08:31.476Z,90.33
2019-04-14T01:09:32.622Z,90.12
2019-04-14T01:10:32.208Z,90.23
2019-04-14T01:11:31.402Z,90.23
2019-04-14T01:12:32.119Z,90.12
2019-04-14T01:13:31.352Z,91.37
2019-04-14T01:14:32.009Z,91.06
2019-04-14T01:15:44.828Z,91.06
2019-04-14T01:16:32.307Z,90.44
2019-04-14T01:17:31.302Z,90.54
2019-04-14T01:18:31.957Z,90.54
2019-04-14T01:19:31.282Z,90.44
2019-04-14T01:20:31.834Z,90.44
2019-04-14T01:21:31.265Z,90.12
2019-04-14T01:22:31.493Z,90.89
2019-04-14T01:23:32.556Z,90.64
2019-04-14T01:24:31.555Z,90.58
2019-04-14T01:25:32.365Z,90.23
2019-04-14T01:26:31.218Z,90.33
2019-04-14T01:27:32.029Z,90.54
2019-04-14T01:28:31.177Z,90.23
2019-04-14T01:29:31.976Z,90.23
2019-04-14T01:30:31.158Z,90.23
2019-04-14T01:31:31.705Z,90.54
2019-04-14T01:32:31.149Z,90.85
2019-04-14T01:33:31.589Z,90.64
2019-04-14T01:34:32.330Z,90.75
2019-04-14T01:35:31.437Z,90.58
2019-04-14T01:36:31.999Z,90.54
2019-04-14T01:37:31.213Z,90.64
2019-04-14T01:38:31.953Z,90.64
2019-04-14T01:39:31.057Z,90.16
2019-04-14T01:40:31.472Z,90.47
2019-04-14T01:41:31.036Z,90.75
2019-04-14T01:42:31.118Z,90.54
2019-04-14T01:43:32.122Z,90.54
2019-04-14T01:44:31.015Z,90.44
2019-04-14T01:45:31.746Z,90.75
2019-04-14T01:46:33.058Z,90.85
2019-04-14T01:47:31.386Z,90.75
2019-04-14T01:48:30.960Z,90.33
2019-04-14T01:49:31.141Z,90.33
2019-04-14T01:50:30.951Z,90.12
2019-04-14T01:51:31.001Z,90.75
2019-04-14T01:52:32.019Z,90.54
2019-04-14T01:53:31.490Z,90.33
2019-04-14T01:54:30.898Z,90.54
2019-04-14T01:55:30.941Z,90.33
2019-04-14T01:56:31.953Z,91.16
2019-04-14T01:57:30.860Z,90.70
2019-04-14T01:58:31.754Z,90.64
2019-04-14T01:59:30.842Z,90.23
2019-04-14T02:00:31.597Z,90.44
2019-04-14T02:01:30.822Z,90.64
2019-04-14T02:02:31.500Z,90.75
2019-04-14T02:03:30.796Z,90.75
2019-04-14T02:04:31.277Z,90.75
2019-04-14T02:05:30.774Z,90.58
2019-04-14T02:06:31.251Z,90.75
2019-04-14T02:07:31.877Z,90.54
2019-04-14T02:08:30.885Z,90.69
2019-04-14T02:09:31.625Z,90.58
2019-04-14T02:10:30.722Z,90.58
2019-04-14T02:11:31.371Z,90.69
2019-04-14T02:12:30.713Z,90.47
2019-04-14T02:13:31.127Z,90.47
2019-04-14T02:14:30.693Z,90.79
2019-04-14T02:15:30.929Z,90.79
2019-04-14T02:16:37.835Z,90.47
2019-04-14T02:17:32.748Z,90.69
2019-04-14T02:18:31.784Z,90.79
2019-04-14T02:19:30.672Z,90.58
2019-04-14T02:20:31.784Z,90.89
2019-04-14T02:21:30.596Z,90.69
2019-04-14T02:22:31.282Z,91.00
2019-04-14T02:23:30.576Z,90.79
2019-04-14T02:24:30.949Z,90.26
2019-04-14T02:25:31.673Z,90.37
2019-04-14T02:26:30.937Z,90.37
2019-04-14T02:27:31.723Z,90.12
2019-04-14T02:28:31.014Z,90.33
2019-04-14T02:29:31.783Z,90.02
2019-04-14T02:30:36.577Z,90.16
2019-04-14T02:31:56.855Z,89.85
2019-04-14T02:32:57.291Z,89.85
2019-04-14T02:33:58.253Z,90.02
2019-04-14T02:34:57.202Z,90.06
2019-04-14T02:37:05.319Z,90.06
2019-04-14T02:38:02.296Z,90.06
2019-04-14T02:39:15.583Z,90.06
2019-04-14T02:42:06.792Z,90.47
2019-04-14T02:43:08.428Z,90.79
2019-04-14T02:44:15.855Z,90.37
2019-04-14T02:44:59.845Z,90.12
2019-04-14T02:48:03.839Z,90.12
2019-04-14T02:48:58.405Z,90.02
2019-04-14T02:49:59.722Z,90.02
2019-04-14T02:50:56.169Z,90.16
2019-04-14T02:51:58.482Z,90.12
2019-04-14T02:53:03.701Z,90.02
2019-04-14T02:53:59.362Z,90.12
2019-04-14T02:54:58.772Z,90.23
2019-04-14T02:56:07.690Z,90.23
2019-04-14T02:58:01.173Z,90.23
2019-04-14T02:59:58.831Z,90.06
2019-04-14T03:01:14.692Z,90.06
2019-04-14T03:02:59.561Z,90.58
2019-04-14T03:05:00.004Z,90.79
2019-04-14T03:06:01.568Z,90.58
2019-04-14T03:06:58.202Z,90.16
2019-04-14T03:08:59.032Z,90.16
2019-04-14T03:10:12.582Z,89.85
2019-04-14T03:10:57.741Z,89.85
2019-04-14T03:11:51.804Z,90.16
2019-04-14T03:12:57.859Z,90.16
2019-04-14T03:13:58.349Z,90.47
2019-04-14T03:15:13.051Z,90.16
2019-04-14T03:15:59.112Z,90.26
2019-04-14T03:17:08.147Z,90.58
2019-04-14T03:18:16.994Z,90.26
2019-04-14T03:18:52.455Z,90.26
2019-04-14T03:20:06.524Z,90.79
2019-04-14T03:20:59.140Z,90.26
2019-04-14T03:22:09.715Z,90.69
2019-04-14T03:23:55.743Z,90.26
2019-04-14T03:24:42.160Z,90.79
2019-04-14T03:25:51.310Z,90.47
2019-04-14T03:26:54.193Z,90.37
2019-04-14T03:27:58.421Z,90.16
2019-04-14T03:28:50.761Z,89.95
2019-04-14T03:30:05.052Z,89.85
2019-04-14T03:31:12.218Z,89.85
2019-04-14T03:33:18.442Z,89.33
2019-04-14T03:35:04.005Z,89.12
2019-04-14T03:36:16.698Z,89.02
2019-04-14T03:37:59.465Z,89.12
2019-04-14T03:39:00.084Z,89.02
2019-04-14T03:39:51.867Z,89.43
2019-04-14T03:40:58.627Z,89.33
2019-04-14T03:42:00.874Z,89.23
2019-04-14T03:43:05.844Z,89.37
2019-04-14T03:44:11.839Z,89.27
2019-04-14T03:44:56.536Z,89.37
2019-04-14T03:45:59.218Z,89.48
2019-04-14T03:47:03.098Z,89.27
2019-04-14T03:48:31.769Z,89.06
2019-04-14T03:49:59.775Z,89.06
2019-04-14T03:51:06.763Z,88.96
2019-04-14T03:52:55.844Z,88.96
2019-04-14T03:53:53.415Z,88.85
2019-04-14T03:54:50.123Z,89.00
2019-04-14T03:55:39.493Z,89.10
2019-04-14T03:56:31.326Z,89.17
2019-04-14T03:57:30.961Z,89.62
2019-04-14T03:58:29.538Z,89.31
2019-04-14T03:59:30.272Z,89.20
2019-04-14T04:00:29.535Z,90.14
2019-04-14T04:01:30.201Z,90.45
2019-04-14T04:02:29.502Z,90.45
2019-04-14T04:03:30.353Z,90.45
2019-04-14T04:04:29.509Z,90.04
2019-04-14T04:05:30.284Z,90.14
2019-04-14T04:06:29.455Z,90.14
2019-04-14T04:07:30.046Z,89.83
2019-04-14T04:08:29.427Z,89.83
2019-04-14T04:09:30.047Z,89.73
2019-04-14T04:10:29.432Z,89.41
2019-04-14T04:11:30.128Z,90.14
2019-04-14T04:12:29.393Z,88.89
2019-04-14T04:13:30.243Z,89.10
2019-04-14T04:14:29.403Z,89.00
2019-04-14T04:15:30.034Z,89.41
2019-04-14T04:16:29.357Z,89.52
2019-04-14T04:17:29.811Z,89.00
2019-04-14T04:18:29.338Z,89.00
2019-04-14T04:19:29.470Z,88.89
2019-04-14T04:20:29.302Z,88.73
2019-04-14T04:21:29.289Z,88.83
2019-04-14T04:22:30.325Z,88.52
2019-04-14T04:23:29.273Z,88.83
2019-04-14T04:24:31.595Z,88.42
2019-04-14T04:25:29.242Z,89.35
2019-04-14T04:26:30.024Z,89.14
2019-04-14T04:27:29.244Z,88.93
2019-04-14T04:28:29.897Z,88.87
2019-04-14T04:29:29.219Z,88.93
2019-04-14T04:30:29.731Z,89.14
2019-04-14T04:31:29.180Z,88.83
2019-04-14T04:32:29.767Z,88.87
2019-04-14T04:33:29.184Z,88.98
2019-04-14T04:34:29.465Z,88.45
2019-04-14T04:35:30.160Z,88.66
2019-04-14T04:36:29.205Z,88.56
2019-04-14T04:37:30.071Z,88.87
2019-04-14T04:38:29.151Z,88.60
2019-04-14T04:39:30.160Z,88.45
2019-04-14T04:40:29.139Z,88.49
2019-04-14T04:41:29.637Z,88.56
2019-04-14T04:42:29.055Z,88.98
2019-04-14T04:43:29.767Z,88.76
2019-04-14T04:44:29.130Z,88.91
2019-04-14T04:45:29.981Z,89.01
2019-04-14T04:46:29.006Z,88.35
2019-04-14T04:47:29.506Z,88.98
2019-04-14T04:48:28.986Z,88.39
2019-04-14T04:49:30.753Z,89.01
2019-04-14T04:50:30.269Z,88.60
2019-04-14T04:51:29.068Z,88.60
2019-04-14T04:52:30.030Z,88.60
2019-04-14T04:53:28.929Z,88.70
2019-04-14T04:54:30.109Z,88.81
2019-04-14T04:55:28.908Z,88.81
2019-04-14T04:56:29.742Z,88.81
2019-04-14T04:57:28.911Z,88.95
2019-04-14T04:58:28.874Z,89.06
2019-04-14T04:59:29.998Z,88.85
2019-04-14T05:00:28.853Z,89.12
2019-04-14T05:01:29.597Z,88.95
2019-04-14T05:02:28.857Z,89.12
2019-04-14T05:03:29.706Z,89.06
2019-04-14T05:04:28.816Z,88.85
2019-04-14T05:05:29.570Z,88.95
2019-04-14T05:06:28.908Z,88.91
2019-04-14T05:07:29.541Z,88.91
2019-04-14T05:08:28.779Z,88.91
2019-04-14T05:09:29.583Z,88.70
2019-04-14T05:10:28.750Z,88.81
2019-04-14T05:11:29.489Z,88.49
2019-04-14T05:12:28.735Z,89.01
2019-04-14T05:13:29.219Z,88.91
2019-04-14T05:14:28.726Z,88.49
2019-04-14T05:15:29.090Z,88.91
2019-04-14T05:16:28.676Z,88.49
2019-04-14T05:17:29.793Z,88.49
2019-04-14T05:18:29.055Z,88.70
2019-04-14T05:19:33.680Z,88.81
2019-04-14T05:20:29.667Z,88.49
2019-04-14T05:21:29.886Z,88.60
2019-04-14T05:22:28.914Z,88.49
2019-04-14T05:23:29.830Z,88.87
2019-04-14T05:24:29.082Z,88.60
2019-04-14T05:25:29.629Z,88.45
2019-04-14T05:26:28.790Z,88.76
2019-04-14T05:27:29.751Z,88.87
2019-04-14T05:28:28.860Z,88.87
2019-04-14T05:29:29.654Z,88.45
2019-04-14T05:30:28.642Z,88.39
2019-04-14T05:31:29.436Z,88.87
2019-04-14T05:32:28.503Z,89.08
2019-04-14T05:33:29.326Z,88.76
2019-04-14T05:34:28.508Z,88.56
2019-04-14T05:35:29.089Z,88.87
2019-04-14T05:36:28.462Z,88.45
2019-04-14T05:37:29.007Z,88.83
2019-04-14T05:38:31.811Z,88.73
2019-04-14T05:39:28.594Z,88.83
2019-04-14T05:40:28.435Z,88.31
2019-04-14T05:41:28.694Z,88.31
2019-04-14T05:42:29.870Z,88.42
2019-04-14T05:43:38.623Z,88.62
2019-04-14T05:44:29.684Z,88.52
2019-04-14T05:45:28.533Z,88.52
2019-04-14T05:46:29.533Z,88.17
2019-04-14T05:47:28.417Z,88.17
2019-04-14T05:48:29.404Z,88.20
2019-04-14T05:49:35.304Z,87.68
2019-04-14T05:50:29.320Z,87.65
2019-04-14T05:51:28.428Z,87.85
2019-04-14T05:52:29.482Z,88.06
2019-04-14T05:53:28.395Z,87.85
2019-04-14T05:54:29.560Z,87.60
2019-04-14T05:55:28.495Z,87.75
2019-04-14T05:56:29.535Z,87.81
2019-04-14T05:57:28.453Z,87.92
2019-04-14T05:58:28.557Z,87.77
2019-04-14T05:59:28.588Z,86.73
2019-04-14T06:00:28.241Z,86.83
2019-04-14T06:01:29.201Z,86.42
2019-04-14T06:02:30.434Z,86.00
2019-04-14T06:03:28.183Z,86.11
2019-04-14T06:04:28.562Z,86.07
2019-04-14T06:05:28.161Z,86.21
2019-04-14T06:06:28.135Z,86.21
2019-04-14T06:07:28.144Z,86.17
2019-04-14T06:08:28.115Z,86.27
2019-04-14T06:09:28.128Z,86.21
2019-04-14T06:10:28.108Z,86.00
2019-04-14T06:11:28.131Z,85.90
2019-04-14T06:12:28.071Z,86.07
2019-04-14T06:13:28.061Z,86.21
2019-04-14T06:14:28.064Z,85.55
2019-04-14T06:15:28.040Z,85.82
2019-04-14T06:16:28.021Z,85.61
2019-04-14T06:17:28.080Z,85.20
2019-04-14T06:18:28.029Z,85.61
2019-04-14T06:19:37.201Z,85.61
2019-04-14T06:20:29.030Z,84.16
2019-04-14T06:21:27.990Z,83.81
2019-04-14T06:22:27.969Z,83.81
2019-04-14T06:23:27.943Z,83.81
2019-04-14T06:24:27.938Z,84.33
2019-04-14T06:25:27.934Z,82.94
2019-04-14T06:26:27.935Z,82.21
2019-04-14T06:27:27.904Z,81.90
2019-04-14T06:28:27.894Z,82.01
2019-04-14T06:29:27.896Z,81.66
2019-04-14T06:30:27.875Z,82.01
2019-04-14T06:31:27.893Z,80.37
2019-04-14T06:32:27.859Z,80.37
2019-04-14T06:33:27.847Z,78.68
2019-04-14T06:34:27.842Z,79.10
2019-04-14T06:35:27.814Z,78.89
2019-04-14T06:36:27.836Z,78.99
2019-04-14T06:37:27.847Z,78.78
2019-04-14T06:38:27.785Z,78.85
2019-04-14T06:39:27.768Z,78.33
2019-04-14T06:40:27.759Z,78.02
2019-04-14T06:41:27.750Z,78.85
2019-04-14T06:42:27.738Z,78.92
2019-04-14T06:43:27.754Z,77.57
2019-04-14T06:44:27.716Z,77.43
2019-04-14T06:45:27.707Z,77.74
2019-04-14T06:46:27.692Z,78.16
2019-04-14T06:47:27.683Z,76.71
2019-04-14T06:48:27.727Z,77.15
2019-04-14T06:49:27.680Z,76.95
2019-04-14T06:50:27.691Z,77.09
2019-04-14T06:51:27.664Z,78.12
2019-04-14T06:52:27.718Z,77.61
2019-04-14T06:53:27.616Z,77.29
2019-04-14T06:54:27.648Z,78.27
2019-04-14T06:55:27.616Z,79.06
2019-04-14T06:56:27.614Z,78.85
2019-04-14T06:57:27.595Z,78.96
2019-04-14T06:58:27.581Z,77.47
2019-04-14T06:59:27.547Z,77.88
2019-04-14T07:00:27.576Z,77.88
2019-04-14T07:01:27.545Z,77.57
2019-04-14T07:02:27.543Z,76.84
2019-04-14T07:03:27.544Z,77.88
2019-04-14T07:04:27.515Z,78.40
2019-04-14T07:05:27.509Z,77.15
2019-04-14T07:06:27.499Z,76.71
2019-04-14T07:07:27.461Z,77.71
2019-04-14T07:08:29.825Z,79.06
2019-04-14T07:09:27.437Z,78.33
2019-04-14T07:10:27.470Z,78.44
2019-04-14T07:11:27.472Z,78.12
2019-04-14T07:12:27.436Z,78.33
2019-04-14T07:13:27.399Z,79.13
2019-04-14T07:14:31.547Z,77.50
2019-04-14T07:15:27.406Z,76.74
2019-04-14T07:16:27.361Z,77.36
2019-04-14T07:17:27.353Z,76.84
2019-04-14T07:18:27.371Z,76.09
2019-04-14T07:19:27.365Z,75.95
2019-04-14T07:20:27.319Z,76.78
2019-04-14T07:21:27.308Z,76.88
2019-04-14T07:22:27.341Z,74.53
2019-04-14T07:23:27.319Z,75.88
2019-04-14T07:24:27.307Z,75.78
2019-04-14T07:25:27.318Z,76.91
2019-04-14T07:26:27.286Z,78.61
2019-04-14T07:27:27.249Z,76.64
2019-04-14T07:28:27.258Z,76.12
2019-04-14T07:29:27.253Z,77.57
2019-04-14T07:30:27.222Z,77.98
2019-04-14T07:31:27.254Z,77.05
2019-04-14T07:32:27.227Z,78.19
2019-04-14T07:33:27.212Z,78.99
2019-04-14T07:34:27.165Z,78.05
2019-04-14T07:35:27.180Z,78.67
2019-04-14T07:36:27.168Z,76.91
2019-04-14T07:37:27.160Z,77.01
2019-04-14T07:38:27.160Z,77.81
2019-04-14T07:39:27.125Z,78.33
2019-04-14T07:40:27.125Z,75.43
2019-04-14T07:41:27.118Z,74.91
2019-04-14T07:42:27.075Z,75.43
2019-04-14T07:43:27.065Z,75.84
2019-04-14T07:44:27.069Z,75.32
2019-04-14T07:45:27.119Z,75.53
2019-04-14T07:46:27.054Z,75.84
2019-04-14T07:47:27.060Z,75.60
2019-04-14T07:48:27.031Z,76.12
2019-04-14T07:49:27.016Z,77.05
2019-04-14T07:50:26.992Z,74.46
2019-04-14T07:51:27.008Z,75.70
2019-04-14T07:52:26.979Z,75.78
2019-04-14T07:53:26.990Z,75.15
2019-04-14T07:54:26.944Z,74.43
2019-04-14T07:55:26.953Z,74.50
2019-04-14T07:56:26.943Z,75.74
2019-04-14T07:57:26.909Z,75.32
2019-04-14T07:58:26.917Z,74.71
2019-04-14T07:59:26.962Z,73.67
2019-04-14T08:00:26.909Z,75.29
2019-04-14T08:01:26.870Z,74.88
2019-04-14T08:02:26.870Z,73.95
2019-04-14T08:03:26.850Z,72.30
2019-04-14T08:04:26.852Z,72.57
2019-04-14T08:05:26.844Z,73.50
2019-04-14T08:06:26.829Z,73.88
2019-04-14T08:07:26.815Z,70.78
2019-04-14T08:08:26.788Z,71.06
2019-04-14T08:09:26.786Z,68.51
2019-04-14T08:10:26.807Z,69.24
2019-04-14T08:11:26.776Z,69.24
2019-04-14T08:12:26.758Z,69.54
2019-04-14T08:13:26.760Z,71.99
2019-04-14T08:14:26.722Z,72.50
2019-04-14T08:15:26.730Z,72.27
2019-04-14T08:16:26.708Z,71.85
2019-04-14T08:17:26.728Z,70.31
2019-04-14T08:18:26.717Z,69.48
2019-04-14T08:19:26.682Z,68.73
2019-04-14T08:20:27.885Z,68.11
2019-04-14T08:21:26.673Z,67.60
2019-04-14T08:22:26.655Z,67.08
2019-04-14T08:23:26.654Z,67.74
2019-04-14T08:24:26.621Z,68.35
2019-04-14T08:25:34.178Z,65.50
2019-04-14T08:26:34.156Z,65.68
2019-04-14T08:27:26.606Z,64.03
2019-04-14T08:28:35.591Z,63.13
2019-04-14T08:29:26.578Z,65.81
2019-04-14T08:30:26.597Z,64.27
2019-04-14T08:31:26.535Z,65.26
2019-04-14T08:32:26.527Z,65.89
2019-04-14T08:33:26.538Z,65.03
2019-04-14T08:34:26.501Z,64.00
2019-04-14T08:35:35.153Z,64.36
2019-04-14T08:36:26.520Z,64.25
2019-04-14T08:37:26.514Z,62.19
2019-04-14T08:38:26.499Z,65.45
2019-04-14T08:39:26.469Z,66.07
2019-04-14T08:40:26.476Z,64.81
2019-04-14T08:41:35.124Z,65.63
2019-04-14T08:42:26.412Z,63.98
2019-04-14T08:43:26.403Z,61.42
2019-04-14T08:44:26.399Z,61.86
2019-04-14T08:45:26.377Z,61.14
2019-04-14T08:46:26.368Z,63.29
2019-04-14T08:47:26.386Z,62.27
2019-04-14T08:48:26.352Z,60.73
2019-04-14T08:49:26.334Z,62.55
2019-04-14T08:50:38.686Z,63.24
2019-04-14T08:51:27.312Z,60.67
2019-04-14T08:52:26.306Z,61.52
2019-04-14T08:53:26.317Z,62.73
2019-04-14T08:54:26.295Z,60.77
2019-04-14T08:55:26.270Z,60.47
2019-04-14T08:56:26.261Z,59.31
2019-04-14T08:57:26.247Z,58.59
2019-04-14T08:58:26.235Z,58.11
2019-04-14T08:59:26.239Z,59.64
2019-04-14T09:00:26.232Z,58.72
2019-04-14T09:01:26.202Z,58.00
2019-04-14T09:02:26.196Z,57.79
2019-04-14T09:03:26.179Z,59.92
2019-04-14T09:04:26.488Z,60.75
2019-04-14T09:05:26.156Z,60.41
2019-04-14T09:06:26.161Z,58.95
2019-04-14T09:07:26.138Z,58.23
2019-04-14T09:08:26.123Z,56.92
2019-04-14T09:09:26.128Z,60.49
2019-04-14T09:10:26.100Z,61.41
2019-04-14T09:11:26.095Z,58.03
2019-04-14T09:12:26.092Z,59.56
2019-04-14T09:13:26.070Z,61.30
2019-04-14T09:14:26.127Z,59.53
2019-04-14T09:15:26.067Z,61.27
2019-04-14T09:16:26.035Z,60.97
2019-04-14T09:17:26.029Z,57.69
2019-04-14T09:18:26.021Z,57.71
2019-04-14T09:19:26.003Z,56.51
2019-04-14T09:20:25.993Z,60.17
2019-04-14T09:21:25.995Z,58.84
2019-04-14T09:22:25.970Z,59.87
2019-04-14T09:23:25.958Z,60.79
2019-04-14T09:24:25.964Z,60.56
2019-04-14T09:25:25.938Z,59.61
2019-04-14T09:26:25.940Z,56.13
2019-04-14T09:27:25.922Z,57.87
2019-04-14T09:28:25.904Z,56.61
2019-04-14T09:29:25.901Z,54.16
2019-04-14T09:30:25.887Z,57.84
2019-04-14T09:31:25.870Z,59.07
2019-04-14T09:32:25.887Z,54.46
2019-04-14T09:33:25.849Z,56.30
2019-04-14T09:34:25.840Z,58.02
2019-04-14T09:35:25.831Z,54.03
2019-04-14T09:36:25.823Z,51.08
2019-04-14T09:37:25.812Z,51.47
2019-04-14T09:38:25.810Z,50.67
2019-04-14T09:39:25.784Z,51.67
2019-04-14T09:40:25.772Z,53.92
2019-04-14T09:41:25.760Z,51.57
2019-04-14T09:42:25.751Z,51.24
2019-04-14T09:43:25.758Z,52.47
2019-04-14T09:44:25.737Z,51.01
2019-04-14T09:45:25.739Z,51.42
2019-04-14T09:46:25.705Z,52.03
2019-04-14T09:47:25.696Z,52.85
2019-04-14T09:48:25.687Z,51.24
2019-04-14T09:49:25.685Z,52.59
2019-04-14T09:50:25.663Z,56.10
2019-04-14T09:51:25.669Z,53.85
2019-04-14T09:52:25.643Z,54.46
2019-04-14T09:53:25.636Z,56.51
2019-04-14T09:54:25.617Z,56.02
2019-04-14T09:55:25.621Z,56.64
2019-04-14T09:56:25.598Z,52.62
2019-04-14T09:57:25.583Z,54.46
2019-04-14T09:58:25.572Z,52.21
2019-04-14T09:59:25.571Z,51.67
2019-04-14T10:00:25.554Z,53.13
2019-04-14T10:01:25.557Z,54.13
2019-04-14T10:02:25.570Z,54.41
2019-04-14T10:03:25.522Z,54.10
2019-04-14T10:04:25.507Z,55.08
2019-04-14T10:05:25.510Z,51.32
2019-04-14T10:06:25.485Z,53.85
2019-04-14T10:07:25.472Z,54.67
2019-04-14T10:08:25.497Z,52.09
2019-04-14T10:09:25.461Z,54.36
2019-04-14T10:10:25.442Z,54.28
2019-04-14T10:11:25.434Z,54.80
2019-04-14T10:12:25.418Z,52.44
2019-04-14T10:13:25.413Z,51.53
2019-04-14T10:14:25.420Z,52.14
2019-04-14T10:15:25.387Z,51.88
2019-04-14T10:16:25.374Z,51.16
2019-04-14T10:17:25.362Z,51.70
2019-04-14T10:18:25.349Z,50.80
2019-04-14T10:19:25.343Z,51.72
2019-04-14T10:20:25.367Z,52.13
2019-04-14T10:21:25.318Z,53.03
2019-04-14T10:22:33.796Z,51.70
2019-04-14T10:23:26.293Z,51.42
2019-04-14T10:24:25.286Z,51.93
2019-04-14T10:25:25.276Z,54.69
2019-04-14T10:26:25.281Z,52.44
2019-04-14T10:27:25.250Z,51.72
2019-04-14T10:28:25.247Z,52.64
2019-04-14T10:29:25.230Z,51.93
2019-04-14T10:30:25.218Z,51.42
2019-04-14T10:31:25.222Z,49.26
2019-04-14T10:32:25.203Z,50.78
2019-04-14T10:33:25.188Z,50.96
2019-04-14T10:34:25.172Z,50.83
2019-04-14T10:35:25.165Z,50.55
2019-04-14T10:36:25.153Z,48.58
2019-04-14T10:37:25.155Z,47.76
2019-04-14T10:38:25.141Z,48.27
2019-04-14T10:39:25.120Z,50.93
2019-04-14T10:40:25.113Z,49.19
2019-04-14T10:41:25.100Z,50.01
2019-04-14T10:42:25.085Z,49.79
2019-04-14T10:43:25.087Z,50.09
2019-04-14T10:44:25.073Z,50.78
2019-04-14T10:45:25.056Z,51.98
2019-04-14T10:46:25.046Z,48.21
2019-04-14T10:47:25.031Z,48.51
2019-04-14T10:48:25.032Z,48.84
2019-04-14T10:49:25.008Z,48.10
2019-04-14T10:50:30.924Z,46.66
2019-04-14T10:51:30.244Z,47.49
2019-04-14T10:52:25.974Z,47.37
2019-04-14T10:53:24.966Z,48.47
2019-04-14T10:54:24.965Z,46.53
2019-04-14T10:55:24.954Z,45.84
2019-04-14T10:56:24.935Z,45.94
2019-04-14T10:57:24.921Z,49.38
2019-04-14T10:58:24.906Z,47.24
2019-04-14T10:59:24.898Z,45.72
2019-04-14T11:00:24.901Z,46.96
2019-04-14T11:01:24.874Z,48.31
2019-04-14T11:02:24.880Z,48.41
2019-04-14T11:03:24.854Z,49.10
2019-04-14T11:04:24.841Z,49.00
2019-04-14T11:05:24.832Z,49.62
2019-04-14T11:06:24.835Z,48.31
2019-04-14T11:07:24.810Z,47.31
2019-04-14T11:08:24.806Z,49.66
2019-04-14T11:09:24.803Z,51.40
2019-04-14T11:10:24.782Z,47.31
2019-04-14T11:11:24.764Z,50.96
2019-04-14T11:12:24.762Z,50.12
2019-04-14T11:13:24.740Z,48.28
2019-04-14T11:14:24.732Z,49.95
2019-04-14T11:15:24.723Z,48.33
2019-04-14T11:16:24.713Z,48.43
2019-04-14T11:17:24.718Z,48.86
2019-04-14T11:18:24.690Z,48.33
2019-04-14T11:19:24.679Z,48.41
2019-04-14T11:20:24.681Z,49.15
2019-04-14T11:21:24.667Z,49.22
2019-04-14T11:22:24.647Z,47.31
2019-04-14T11:23:24.653Z,47.23
2019-04-14T11:24:24.621Z,46.33
2019-04-14T11:25:24.607Z,46.03
2019-04-14T11:26:24.596Z,44.90
2019-04-14T11:27:24.586Z,44.49
2019-04-14T11:28:24.582Z,45.82
2019-04-14T11:29:24.581Z,47.25
2019-04-14T11:30:24.552Z,47.76
2019-04-14T11:31:24.543Z,47.44
2019-04-14T11:32:24.531Z,48.35
2019-04-14T11:33:24.519Z,47.39
2019-04-14T11:34:24.512Z,47.49
2019-04-14T11:35:24.526Z,48.94
2019-04-14T11:36:24.489Z,47.72
2019-04-14T11:37:24.481Z,48.66
2019-04-14T11:38:24.463Z,47.86
2019-04-14T11:39:24.452Z,48.07
2019-04-14T11:40:24.442Z,47.86
2019-04-14T11:41:24.446Z,48.33
2019-04-14T11:42:24.435Z,47.29
2019-04-14T11:43:24.434Z,47.88
2019-04-14T11:44:24.421Z,45.94
2019-04-14T11:45:24.396Z,48.31
2019-04-14T11:46:24.409Z,46.04
2019-04-14T11:47:24.369Z,45.84
2019-04-14T11:48:24.405Z,46.96
2019-04-14T11:49:24.347Z,47.88
2019-04-14T11:50:24.329Z,46.02
2019-04-14T11:51:24.318Z,49.05
2019-04-14T11:52:24.335Z,47.22
2019-04-14T11:53:24.361Z,45.69
2019-04-14T11:54:24.292Z,44.98
2019-04-14T11:55:24.278Z,47.20
2019-04-14T11:56:24.262Z,46.97
2019-04-14T11:57:24.251Z,47.99
2019-04-14T11:58:24.248Z,47.99
2019-04-14T11:59:24.246Z,47.17
2019-04-14T12:00:24.223Z,46.08
2019-04-14T12:01:24.209Z,47.42
2019-04-14T12:02:24.203Z,48.57
2019-04-14T12:03:24.195Z,45.79
2019-04-14T12:04:24.202Z,44.69
2019-04-14T12:05:24.177Z,44.38
2019-04-14T12:06:24.165Z,46.02
2019-04-14T12:07:24.139Z,46.20
2019-04-14T12:08:24.132Z,45.51
2019-04-14T12:09:24.119Z,46.00
2019-04-14T12:10:24.133Z,46.12
2019-04-14T12:11:24.119Z,48.26
2019-04-14T12:12:24.100Z,49.05
2019-04-14T12:13:24.073Z,48.32
2019-04-14T12:14:24.102Z,47.55
2019-04-14T12:15:24.082Z,48.80
2019-04-14T12:16:24.053Z,47.47
2019-04-14T12:17:24.041Z,47.88
2019-04-14T12:18:24.017Z,50.35
2019-04-14T12:19:24.005Z,50.56
2019-04-14T12:20:24.020Z,48.31
2019-04-14T12:21:23.996Z,48.61
2019-04-14T12:22:24.022Z,48.35
2019-04-14T12:23:24.015Z,48.38
2019-04-14T12:24:23.955Z,47.56
2019-04-14T12:25:23.968Z,47.15
2019-04-14T12:26:23.931Z,47.76
2019-04-14T12:27:23.969Z,48.58
2019-04-14T12:28:24.070Z,50.22
2019-04-14T12:29:23.895Z,49.68
2019-04-14T12:30:24.481Z,50.42
2019-04-14T12:31:24.201Z,51.34
2019-04-14T12:32:23.890Z,50.93
2019-04-14T12:33:23.880Z,50.83
2019-04-14T12:34:23.897Z,48.89
2019-04-14T12:35:23.841Z,50.50
2019-04-14T12:36:23.822Z,50.68
2019-04-14T12:37:23.833Z,49.54
2019-04-14T12:38:23.793Z,48.49
2019-04-14T12:39:23.806Z,49.49
2019-04-14T12:40:23.812Z,48.36
2019-04-14T12:41:24.162Z,44.37
2019-04-14T12:42:23.769Z,47.34
2019-04-14T12:43:23.758Z,46.34
2019-04-14T12:44:23.748Z,48.10
2019-04-14T12:45:23.732Z,48.10
2019-04-14T12:46:23.723Z,47.31
2019-04-14T12:47:23.731Z,47.00
2019-04-14T12:48:23.685Z,46.51
2019-04-14T12:49:23.678Z,47.53
2019-04-14T12:50:23.660Z,48.33
2019-04-14T12:51:23.662Z,47.82
2019-04-14T12:52:23.637Z,45.88
2019-04-14T12:53:23.638Z,45.86
2019-04-14T12:54:23.685Z,46.16
2019-04-14T12:55:23.629Z,45.73
2019-04-14T12:56:23.615Z,45.40
2019-04-14T12:57:23.583Z,45.10
2019-04-14T12:58:23.579Z,44.49
2019-04-14T12:59:23.731Z,44.18
2019-04-14T13:00:23.554Z,45.39
2019-04-14T13:01:23.537Z,44.79
2019-04-14T13:02:23.541Z,43.37
2019-04-14T13:03:23.515Z,45.00
2019-04-14T13:04:23.510Z,46.20
2019-04-14T13:05:23.498Z,46.30
2019-04-14T13:06:23.486Z,47.12
2019-04-14T13:07:23.474Z,46.00
2019-04-14T13:08:23.478Z,46.33